sensor_id;sensor_type;location;lat;lon;timestamp;pressure;altitude;pressure_sealevel;temperature;humidity
45939;BME280;31650;48.818;9.116;2023-11-21T00:01:24;97464.63;;;6.57;100.00
45939;BME280;31650;48.818;9.116;2023-11-21T00:16:24;97452.16;;;6.63;100.00
45939;BME280;31650;48.818;9.116;2023-11-21T00:31:25;97446.34;;;6.79;100.00
45939;BME280;31650;48.818;9.116;2023-11-21T00:46:27;97433.84;;;6.92;100.00
45939;BME280;31650;48.818;9.116;2023-11-21T01:01:29;97445.06;;;7.02;100.00
45939;BME280;31650;48.818;9.116;2023-11-21T01:16:29;97451.69;;;7.06;100.00
45939;BME280;31650;48.818;9.116;2023-11-21T01:31:33;97442.34;;;7.02;100.00
45939;BME280;31650;48.818;9.116;2023-11-21T01:46:34;97438.00;;;7.01;100.00
45939;BME280;31650;48.818;9.116;2023-11-21T02:01:35;97426.75;;;6.97;100.00
45939;BME280;31650;48.818;9.116;2023-11-21T02:16:36;97435.72;;;6.98;100.00
45939;BME280;31650;48.818;9.116;2023-11-21T02:31:36;97427.38;;;7.06;100.00
45939;BME280;31650;48.818;9.116;2023-11-21T02:46:38;97428.63;;;6.97;100.00
45939;BME280;31650;48.818;9.116;2023-11-21T03:01:39;97405.19;;;6.91;100.00
45939;BME280;31650;48.818;9.116;2023-11-21T03:16:39;97420.56;;;6.70;100.00
45939;BME280;31650;48.818;9.116;2023-11-21T03:31:41;97432.63;;;6.74;100.00
45939;BME280;31650;48.818;9.116;2023-11-21T03:46:41;97428.44;;;6.85;100.00
45939;BME280;31650;48.818;9.116;2023-11-21T04:01:42;97444.47;;;6.87;100.00
45939;BME280;31650;48.818;9.116;2023-11-21T04:16:42;97449.63;;;6.95;100.00
45939;BME280;31650;48.818;9.116;2023-11-21T04:31:46;97443.22;;;6.69;100.00
45939;BME280;31650;48.818;9.116;2023-11-21T04:46:51;97460.66;;;6.33;100.00
45939;BME280;31650;48.818;9.116;2023-11-21T05:01:52;97463.28;;;6.00;100.00
45939;BME280;31650;48.818;9.116;2023-11-21T05:16:54;97470.81;;;5.63;100.00
45939;BME280;31650;48.818;9.116;2023-11-21T05:31:54;97481.22;;;5.73;100.00
45939;BME280;31650;48.818;9.116;2023-11-21T05:46:57;97505.03;;;6.04;100.00
45939;BME280;31650;48.818;9.116;2023-11-21T06:01:59;97502.75;;;6.08;100.00
45939;BME280;31650;48.818;9.116;2023-11-21T06:16:59;97520.19;;;6.12;100.00
45939;BME280;31650;48.818;9.116;2023-11-21T06:32:02;97531.66;;;6.21;100.00
45939;BME280;31650;48.818;9.116;2023-11-21T06:47:05;97553.25;;;6.21;100.00
45939;BME280;31650;48.818;9.116;2023-11-21T07:02:05;97561.34;;;6.27;100.00
45939;BME280;31650;48.818;9.116;2023-11-21T07:17:07;97580.22;;;6.27;100.00
45939;BME280;31650;48.818;9.116;2023-11-21T07:32:07;97587.75;;;6.38;100.00
45939;BME280;31650;48.818;9.116;2023-11-21T07:47:12;97619.69;;;6.96;100.00
45939;BME280;31650;48.818;9.116;2023-11-21T08:02:14;97617.84;;;7.30;100.00
45939;BME280;31650;48.818;9.116;2023-11-21T08:17:16;97630.91;;;7.86;100.00
45939;BME280;31650;48.818;9.116;2023-11-21T08:32:17;97640.34;;;8.36;100.00
45939;BME280;31650;48.818;9.116;2023-11-21T08:47:23;97636.78;;;8.87;100.00
45939;BME280;31650;48.818;9.116;2023-11-21T09:02:27;97639.78;;;8.72;100.00
45939;BME280;31650;48.818;9.116;2023-11-21T09:17:27;97652.59;;;8.51;100.00
45939;BME280;31650;48.818;9.116;2023-11-21T09:48:01;97680.53;;;8.45;100.00
45939;BME280;31650;48.818;9.116;2023-11-21T10:03:01;97702.88;;;8.27;100.00
45939;BME280;31650;48.818;9.116;2023-11-21T10:18:03;97706.84;;;8.05;100.00
45939;BME280;31650;48.818;9.116;2023-11-21T10:33:07;97708.66;;;8.38;100.00
45939;BME280;31650;48.818;9.116;2023-11-21T10:48:15;97699.59;;;9.15;100.00
45939;BME280;31650;48.818;9.116;2023-11-21T11:03:15;97692.88;;;9.25;100.00
45939;BME280;31650;48.818;9.116;2023-11-21T11:18:18;97698.72;;;9.22;100.00
45939;BME280;31650;48.818;9.116;2023-11-21T11:33:26;97686.78;;;10.48;100.00
45939;BME280;31650;48.818;9.116;2023-11-21T11:48:27;97685.25;;;10.15;100.00
45939;BME280;31650;48.818;9.116;2023-11-21T12:03:36;97682.28;;;9.98;100.00
45939;BME280;31650;48.818;9.116;2023-11-21T12:18:36;97710.78;;;8.87;100.00
45939;BME280;31650;48.818;9.116;2023-11-21T12:33:38;97740.50;;;8.62;100.00
45939;BME280;31650;48.818;9.116;2023-11-21T12:48:43;97752.66;;;9.05;100.00
45939;BME280;31650;48.818;9.116;2023-11-21T13:03:47;97731.28;;;9.78;100.00
45939;BME280;31650;48.818;9.116;2023-11-21T13:18:48;97761.16;;;8.37;100.00
45939;BME280;31650;48.818;9.116;2023-11-21T13:33:49;97797.44;;;8.02;100.00
45939;BME280;31650;48.818;9.116;2023-11-21T13:49:05;97812.44;;;8.05;100.00
45939;BME280;31650;48.818;9.116;2023-11-21T14:04:13;97830.75;;;8.09;100.00
45939;BME280;31650;48.818;9.116;2023-11-21T14:19:16;97835.53;;;8.07;100.00
45939;BME280;31650;48.818;9.116;2023-11-21T14:34:17;97846.16;;;8.02;100.00
45939;BME280;31650;48.818;9.116;2023-11-21T14:49:17;97862.41;;;8.02;100.00
45939;BME280;31650;48.818;9.116;2023-11-21T15:04:20;97874.47;;;8.00;100.00
45939;BME280;31650;48.818;9.116;2023-11-21T15:19:28;97898.84;;;8.00;100.00
45939;BME280;31650;48.818;9.116;2023-11-21T15:34:28;97921.31;;;8.00;100.00
45939;BME280;31650;48.818;9.116;2023-11-21T15:49:31;97924.03;;;7.87;100.00
45939;BME280;31650;48.818;9.116;2023-11-21T16:04:35;97952.22;;;7.64;100.00
45939;BME280;31650;48.818;9.116;2023-11-21T16:19:37;97973.19;;;7.49;100.00
45939;BME280;31650;48.818;9.116;2023-11-21T16:34:38;97984.31;;;6.98;100.00
45939;BME280;31650;48.818;9.116;2023-11-21T16:49:39;98006.19;;;6.32;100.00
45939;BME280;31650;48.818;9.116;2023-11-21T17:04:44;98028.72;;;6.03;100.00
45939;BME280;31650;48.818;9.116;2023-11-21T17:19:47;98043.28;;;5.93;100.00
45939;BME280;31650;48.818;9.116;2023-11-21T17:34:50;98059.69;;;6.07;100.00
45939;BME280;31650;48.818;9.116;2023-11-21T17:49:51;98081.09;;;6.45;100.00
45939;BME280;31650;48.818;9.116;2023-11-21T18:04:51;98091.00;;;6.59;100.00
45939;BME280;31650;48.818;9.116;2023-11-21T18:19:51;98109.34;;;6.64;100.00
45939;BME280;31650;48.818;9.116;2023-11-21T18:34:54;98126.34;;;6.79;100.00
45939;BME280;31650;48.818;9.116;2023-11-21T18:49:55;98142.88;;;6.91;100.00
45939;BME280;31650;48.818;9.116;2023-11-21T19:05:00;98158.19;;;6.83;100.00
45939;BME280;31650;48.818;9.116;2023-11-21T19:20:05;98179.25;;;6.73;100.00
45939;BME280;31650;48.818;9.116;2023-11-21T19:35:07;98198.81;;;6.75;100.00
45939;BME280;31650;48.818;9.116;2023-11-21T19:50:08;98200.03;;;6.73;100.00
45939;BME280;31650;48.818;9.116;2023-11-21T20:05:10;98220.75;;;6.66;100.00
45939;BME280;31650;48.818;9.116;2023-11-21T20:20:14;98250.84;;;6.63;100.00
45939;BME280;31650;48.818;9.116;2023-11-21T20:35:18;98262.31;;;6.50;100.00
45939;BME280;31650;48.818;9.116;2023-11-21T20:50:20;98277.31;;;6.52;100.00
45939;BME280;31650;48.818;9.116;2023-11-21T21:05:22;98279.53;;;6.49;100.00
45939;BME280;31650;48.818;9.116;2023-11-21T21:20:23;98283.16;;;6.41;100.00
45939;BME280;31650;48.818;9.116;2023-11-21T21:35:24;98294.69;;;6.35;100.00
45939;BME280;31650;48.818;9.116;2023-11-21T21:50:28;98287.75;;;6.40;100.00
45939;BME280;31650;48.818;9.116;2023-11-21T22:05:29;98299.75;;;6.53;100.00
45939;BME280;31650;48.818;9.116;2023-11-21T22:20:30;98303.84;;;6.49;100.00
45939;BME280;31650;48.818;9.116;2023-11-21T22:35:30;98318.38;;;6.48;100.00
45939;BME280;31650;48.818;9.116;2023-11-21T22:50:32;98320.69;;;6.51;100.00
45939;BME280;31650;48.818;9.116;2023-11-21T23:05:32;98331.34;;;6.52;100.00
45939;BME280;31650;48.818;9.116;2023-11-21T23:20:34;98334.03;;;6.37;100.00
45939;BME280;31650;48.818;9.116;2023-11-21T23:35:35;98344.72;;;6.31;100.00
45939;BME280;31650;48.818;9.116;2023-11-21T23:50:37;98334.56;;;6.33;100.00
